Time;durP1;ratioP1;P1;durP2;ratioP2;P2;SDS_P1;SDS_P2;PMS_P1;PMS_P2;Temp;Humidity;BMP_temperature;BMP_pressure;BME280_temperature;BME280_humidity;BME280_pressure;Samples;Min_cycle;Max_cycle;Signal;HPM_P1;HPM_P2
2022/06/14 00:03:05;;;;;;;2.20;1.80;;;;;;;24.16;49.86;100422.79;88140;1277;80295;-32
2022/06/14 00:05:30;;;;;;;2.60;1.60;;;;;;;24.15;49.76;100425.10;88130;1276;96311;-33
2022/06/14 00:07:58;;;;;;;2.30;1.50;;;;;;;24.15;49.83;100425.65;88123;1276;91470;-32
2022/06/14 00:10:07;;;;;;;2.50;1.80;;;;;;;24.15;49.76;100427.48;88114;1276;94909;-33
2022/06/14 00:12:15;;;;;;;3.40;1.60;;;;;;;24.14;49.73;100429.36;88096;1276;80667;-32
2022/06/14 00:14:23;;;;;;;2.70;1.70;;;;;;;24.14;49.60;100428.20;88086;1276;80750;-32
2022/06/14 00:16:33;;;;;;;2.40;1.60;;;;;;;24.14;49.64;100427.98;88015;1276;99113;-32
2022/06/14 00:18:43;;;;;;;2.50;2.10;;;;;;;24.13;49.50;100430.30;88106;1276;90662;-31
2022/06/14 00:20:55;;;;;;;1.70;1.40;;;;;;;24.13;49.58;100435.48;88084;1276;93456;-31
2022/06/14 00:23:02;;;;;;;2.40;1.70;;;;;;;24.13;49.51;100436.92;88084;1276;82299;-32
2022/06/14 00:25:24;;;;;;;2.80;2.00;;;;;;;24.13;49.48;100434.65;88150;1277;82417;-32
2022/06/14 00:27:32;;;;;;;1.70;1.50;;;;;;;24.12;49.49;100435.32;88150;1275;96613;-32
2022/06/14 00:29:40;;;;;;;2.10;1.60;;;;;;;24.12;49.44;100435.32;88143;1277;92426;-32
2022/06/14 00:31:47;;;;;;;2.30;1.60;;;;;;;24.11;49.43;100435.99;88119;1276;93071;-32
2022/06/14 00:33:58;;;;;;;3.90;2.00;;;;;;;24.12;49.25;100441.45;88121;1276;79863;-32
2022/06/14 00:36:09;;;;;;;3.00;1.70;;;;;;;24.11;49.31;100440.69;88145;1276;81691;-33
2022/06/14 00:38:18;;;;;;;2.10;1.50;;;;;;;24.10;49.30;100439.67;88095;1277;98557;-31
2022/06/14 00:40:29;;;;;;;2.50;1.60;;;;;;;24.10;49.24;100438.08;88140;1276;92103;-32
2022/06/14 00:42:37;;;;;;;2.90;1.70;;;;;;;24.10;49.27;100442.88;88139;1276;93981;-32
2022/06/14 00:44:58;;;;;;;2.50;1.90;;;;;;;24.10;49.16;100447.84;88150;1276;79117;-32
2022/06/14 00:47:10;;;;;;;2.10;1.50;;;;;;;24.09;49.19;100445.52;88168;1276;81039;-32
2022/06/14 00:49:23;;;;;;;2.20;1.70;;;;;;;24.08;49.11;100446.17;88151;1276;97957;-31
2022/06/14 00:51:38;;;;;;;1.80;1.40;;;;;;;24.07;49.15;100446.34;87666;1276;633685;-31
2022/06/14 00:53:54;;;;;;;2.00;1.60;;;;;;;24.07;49.11;100448.44;88131;1277;93378;-32
2022/06/14 00:56:10;;;;;;;2.30;1.50;;;;;;;24.07;49.02;100448.88;88142;1276;79335;-31
2022/06/14 00:58:22;;;;;;;2.30;1.70;;;;;;;24.06;49.06;100450.80;88157;1276;81738;-32
2022/06/14 01:00:35;;;;;;;2.00;1.40;;;;;;;24.05;49.02;100452.58;88151;1277;98136;-32
2022/06/14 01:02:49;;;;;;;3.60;1.70;;;;;;;24.05;48.97;100452.80;88177;1276;90839;-32
2022/06/14 01:05:00;;;;;;;3.10;1.60;;;;;;;24.05;48.92;100454.35;88138;1276;93761;-32
2022/06/14 01:07:17;;;;;;;1.70;1.30;;;;;;;24.04;48.91;100451.58;88146;1277;79765;-32
2022/06/14 01:09:32;;;;;;;2.20;1.70;;;;;;;24.04;48.98;100455.71;88155;1276;81615;-31
2022/06/14 01:11:45;;;;;;;2.20;1.70;;;;;;;24.03;48.86;100449.70;88097;1276;95994;-32
2022/06/14 01:13:53;;;;;;;2.70;1.50;;;;;;;24.03;48.85;100456.33;88177;1276;90213;-33
2022/06/14 01:16:01;;;;;;;2.90;1.90;;;;;;;24.02;48.83;100455.55;88131;1276;93619;-32
2022/06/14 01:18:14;;;;;;;2.40;1.70;;;;;;;24.02;48.80;100457.60;88139;1276;76998;-31
2022/06/14 01:20:22;;;;;;;;;;;;;;;24.02;48.84;100459.20;88190;1277;81802;-32
2022/06/14 01:22:34;;;;;;;3.60;1.60;;;;;;;24.00;48.74;100462.23;88154;1276;98030;-32
2022/06/14 01:24:44;;;;;;;2.50;1.90;;;;;;;24.00;48.72;100461.42;88133;1276;92424;-33
2022/06/14 01:26:52;;;;;;;2.20;1.60;;;;;;;23.99;48.74;100462.73;88141;1276;93825;-31
2022/06/14 01:29:05;;;;;;;3.20;1.50;;;;;;;23.99;48.68;100461.18;88129;1276;79386;-31
2022/06/14 01:31:14;;;;;;;1.70;1.30;;;;;;;23.98;48.62;100457.20;88143;1276;82264;-31
2022/06/14 01:33:27;;;;;;;2.00;1.50;;;;;;;23.97;48.64;100456.29;88131;1276;96977;-31
2022/06/14 01:35:39;;;;;;;3.30;1.70;;;;;;;23.97;48.62;100460.70;88012;1276;92792;-31
2022/06/14 01:37:51;;;;;;;3.60;1.60;;;;;;;23.97;48.59;100458.98;88008;1276;93154;-32
2022/06/14 01:39:59;;;;;;;2.20;1.80;;;;;;;23.97;48.55;100458.05;88116;1276;79399;-32
2022/06/14 01:42:22;;;;;;;3.00;1.60;;;;;;;23.97;48.45;100461.36;88145;1276;81293;-31
2022/06/14 01:44:51;;;;;;;3.60;1.70;;;;;;;23.97;48.38;100462.85;88093;1277;99523;-31
2022/06/14 01:47:17;;;;;;;2.50;1.70;;;;;;;23.96;48.42;100463.94;88140;1276;89465;-32
2022/06/14 01:52:18;;;;;;;2.50;1.70;;;;;;;23.94;48.36;100469.02;88132;1276;80667;-31
2022/06/14 01:54:37;;;;;;;2.20;1.60;;;;;;;23.94;48.34;100470.41;88135;1276;82090;-31
2022/06/14 01:56:53;;;;;;;2.00;1.60;;;;;;;23.94;48.34;100470.52;88134;1276;98057;-32
2022/06/14 01:59:19;;;;;;;1.90;1.50;;;;;;;23.94;48.33;100470.40;88139;1277;91892;-31
2022/06/14 02:01:34;;;;;;;2.20;1.60;;;;;;;23.93;48.25;100472.50;88130;1276;93875;-31
2022/06/14 02:06:25;;;;;;;3.40;1.70;;;;;;;23.93;48.20;100473.72;88156;1276;83372;-31
2022/06/14 02:08:41;;;;;;;3.60;1.60;;;;;;;23.92;48.15;100476.65;88132;1276;96775;-33
2022/06/14 02:11:00;;;;;;;2.60;1.80;;;;;;;23.91;48.10;100476.80;88147;1276;91762;-32
2022/06/14 02:13:16;;;;;;;3.90;2.10;;;;;;;23.92;48.10;100476.31;88137;1276;94779;-32
2022/06/14 02:15:35;;;;;;;3.10;1.70;;;;;;;23.91;48.13;100481.22;88152;1276;78715;-32
2022/06/14 02:17:50;;;;;;;2.80;2.00;;;;;;;23.90;48.16;100482.98;88155;1276;81013;-32
2022/06/14 02:20:05;;;;;;;2.80;1.70;;;;;;;23.90;48.06;100482.71;88103;1275;97529;-32
2022/06/14 02:22:18;;;;;;;3.90;2.20;;;;;;;23.89;48.03;100483.38;88172;1276;90067;-32
2022/06/14 02:24:31;;;;;;;4.20;1.80;;;;;;;23.89;48.09;100484.92;88095;1276;94462;-31
2022/06/14 02:26:42;;;;;;;2.40;1.70;;;;;;;23.88;47.98;100486.64;88146;1276;77981;-32
2022/06/14 02:28:56;;;;;;;2.50;1.60;;;;;;;23.88;47.98;100489.16;88145;1276;81783;-32
2022/06/14 02:31:09;;;;;;;3.70;1.70;;;;;;;23.88;47.94;100488.77;88141;1275;96509;-32
2022/06/14 02:33:30;;;;;;;2.40;1.60;;;;;;;23.87;47.92;100489.81;88147;1276;90983;-32
2022/06/14 02:35:47;;;;;;;2.50;1.70;;;;;;;23.87;47.96;100493.36;88105;1276;94950;-31
2022/06/14 02:37:59;;;;;;;2.50;1.60;;;;;;;23.86;47.89;100489.77;88075;1276;79660;-32
2022/06/14 02:40:15;;;;;;;2.20;1.70;;;;;;;23.85;47.81;100491.98;88090;1276;81500;-32
2022/06/14 02:42:30;;;;;;;2.10;1.60;;;;;;;23.85;47.86;100490.04;88073;1276;99414;-32
2022/06/14 02:44:44;;;;;;;3.30;1.80;;;;;;;23.84;47.74;100490.48;88097;1276;91998;-32
2022/06/14 02:46:57;;;;;;;2.90;1.90;;;;;;;23.84;47.71;100488.71;88067;1276;94412;-31
2022/06/14 02:49:13;;;;;;;2.50;1.90;;;;;;;23.84;47.71;100491.64;88115;1276;78069;-32
2022/06/14 02:51:28;;;;;;;2.00;1.50;;;;;;;23.83;47.74;100490.21;88091;1276;83073;-31
2022/06/14 02:53:42;;;;;;;2.40;1.60;;;;;;;23.83;47.71;100485.96;88071;1276;96956;-32
2022/06/14 02:56:15;;;;;;;2.10;1.60;;;;;;;23.83;47.62;100489.88;88090;1276;92379;-29
2022/06/14 02:58:49;;;;;;;2.60;1.70;;;;;;;23.82;47.69;100490.43;88013;1277;96146;-30
2022/06/14 03:01:23;;;;;;;3.60;1.60;;;;;;;23.81;47.45;100490.20;88091;1276;78499;-30
2022/06/14 03:03:57;;;;;;;2.60;1.70;;;;;;;23.81;47.63;100489.48;88092;1276;83325;-31
2022/06/14 03:06:32;;;;;;;2.20;1.50;;;;;;;23.80;47.57;100496.33;88093;1276;98924;-30
2022/06/14 03:09:04;;;;;;;2.60;1.70;;;;;;;23.80;47.50;100497.59;88083;1276;92773;-31
2022/06/14 03:11:47;;;;;;;1.80;1.40;;;;;;;23.79;47.51;100497.30;88079;1276;95626;-30
2022/06/14 03:14:28;;;;;;;2.90;1.80;;;;;;;23.78;47.44;100503.17;88093;1276;78179;-30
2022/06/14 03:17:07;;;;;;;2.00;1.60;;;;;;;23.78;47.24;100504.77;88105;1276;81874;-31
2022/06/14 03:19:58;;;;;;;2.60;1.50;;;;;;;23.77;47.31;100506.92;88113;1276;98187;-31
2022/06/14 03:22:27;;;;;;;2.00;1.60;;;;;;;23.76;47.29;100504.09;88077;1276;92045;-30
2022/06/14 03:24:46;;;;;;;2.80;1.70;;;;;;;23.76;47.38;100507.70;88088;1276;95056;-29
2022/06/14 03:27:02;;;;;;;2.90;1.40;;;;;;;23.77;47.26;100508.45;88094;1276;79171;-29
2022/06/14 03:29:17;;;;;;;2.80;1.60;;;;;;;23.76;47.14;100513.21;88095;1276;82953;-29
2022/06/14 03:31:33;;;;;;;3.00;1.60;;;;;;;23.76;47.20;100515.67;88076;1276;95707;-30
2022/06/14 03:33:47;;;;;;;2.40;1.60;;;;;;;23.76;47.18;100514.25;88082;1276;91322;-30
2022/06/14 03:35:57;;;;;;;3.10;1.60;;;;;;;23.77;47.10;100516.35;88081;1276;94231;-31
2022/06/14 03:38:12;;;;;;;2.90;1.50;;;;;;;23.77;47.10;100516.30;88089;1276;79112;-30
2022/06/14 03:40:24;;;;;;;2.30;1.70;;;;;;;23.77;47.04;100521.43;88164;1276;83113;-31
2022/06/14 03:42:33;;;;;;;2.80;1.70;;;;;;;23.77;47.10;100521.93;88178;1274;98289;-31
2022/06/14 03:44:43;;;;;;;2.30;1.50;;;;;;;23.77;47.07;100525.41;88187;1274;90264;-30
2022/06/14 03:47:14;;;;;;;4.10;1.90;;;;;;;23.77;46.99;100532.24;88130;1276;94589;-31
2022/06/14 03:49:26;;;;;;;2.20;1.60;;;;;;;23.76;46.94;100529.64;88173;1274;79436;-32
2022/06/14 03:51:59;;;;;;;2.70;1.60;;;;;;;23.76;46.98;100531.20;88157;1274;81303;-32
2022/06/14 03:54:38;;;;;;;2.20;1.90;;;;;;;23.76;46.87;100530.70;88199;1274;98738;-30
2022/06/14 03:57:03;;;;;;;2.00;1.50;;;;;;;23.75;46.92;100531.52;88153;1274;91599;-32
2022/06/14 03:59:44;;;;;;;2.40;1.40;;;;;;;23.75;46.94;100536.27;88158;1274;93964;-31
2022/06/14 04:02:00;;;;;;;2.40;1.60;;;;;;;23.74;46.83;100536.05;88156;1276;78386;-31
2022/06/14 04:04:31;;;;;;;1.90;1.40;;;;;;;23.74;46.75;100536.77;88192;1274;83137;-31
2022/06/14 04:06:51;;;;;;;3.70;1.80;;;;;;;23.73;46.72;100538.15;88164;1276;97573;-32
2022/06/14 04:09:16;;;;;;;3.20;1.70;;;;;;;23.73;46.65;100537.77;88172;1274;92563;-32
2022/06/14 04:11:36;;;;;;;3.10;2.00;;;;;;;23.73;46.72;100537.81;88158;1274;95174;-30
2022/06/14 04:13:50;;;;;;;2.30;1.50;;;;;;;23.73;46.62;100537.05;88159;1274;78830;-32
2022/06/14 04:16:06;;;;;;;2.30;1.50;;;;;;;23.73;46.60;100536.55;88167;1274;81716;-31
2022/06/14 04:18:39;;;;;;;3.30;1.60;;;;;;;23.72;46.58;100539.36;88155;1274;99238;-32
2022/06/14 04:20:47;;;;;;;2.30;1.50;;;;;;;23.72;46.55;100537.65;88177;1274;91718;-32
2022/06/14 04:23:10;;;;;;;4.60;1.70;;;;;;;23.72;46.59;100536.27;88118;1276;93893;-32
2022/06/14 04:25:28;;;;;;;2.40;1.50;;;;;;;23.72;46.63;100535.33;88200;1274;77835;-31
2022/06/14 04:27:45;;;;;;;2.70;1.70;;;;;;;23.71;46.53;100539.58;88114;1276;80074;-30
2022/06/14 04:30:03;;;;;;;2.70;1.70;;;;;;;23.71;46.44;100534.94;88162;1274;98321;-32
2022/06/14 04:32:20;;;;;;;2.20;1.60;;;;;;;23.71;46.43;100542.77;88165;1274;90271;-30
2022/06/14 04:34:35;;;;;;;2.80;1.60;;;;;;;23.71;46.44;100538.03;88168;1274;95327;-32
2022/06/14 04:36:54;;;;;;;2.90;1.60;;;;;;;23.71;46.44;100540.39;88156;1274;79270;-31
2022/06/14 04:39:09;;;;;;;2.30;1.90;;;;;;;23.70;46.29;100537.75;88158;1274;82102;-30
2022/06/14 04:41:24;;;;;;;3.10;1.70;;;;;;;23.70;46.28;100542.23;88158;1274;96616;-31
2022/06/14 04:43:39;;;;;;;2.20;1.90;;;;;;;23.70;46.28;100539.86;88177;1274;91142;-30
2022/06/14 04:45:55;;;;;;;2.60;1.50;;;;;;;23.70;46.22;100537.91;88176;1274;96081;-30
2022/06/14 04:48:08;;;;;;;2.50;1.80;;;;;;;23.70;46.24;100543.16;88149;1274;80534;-31
2022/06/14 04:50:22;;;;;;;2.90;1.80;;;;;;;23.69;46.21;100540.73;88158;1274;80859;-32
2022/06/14 04:52:37;;;;;;;2.90;1.60;;;;;;;23.69;46.23;100542.55;88160;1274;99457;-30
2022/06/14 04:54:52;;;;;;;2.30;1.40;;;;;;;23.70;46.16;100542.61;88162;1274;90964;-30
2022/06/14 04:57:07;;;;;;;2.80;1.70;;;;;;;23.69;46.10;100541.49;88157;1274;93785;-31
2022/06/14 04:59:18;;;;;;;2.60;1.60;;;;;;;23.69;45.98;100546.08;88169;1274;78990;-30
2022/06/14 05:01:30;;;;;;;2.20;1.60;;;;;;;23.69;46.13;100547.73;88169;1274;81394;-30
2022/06/14 05:03:43;;;;;;;2.30;1.60;;;;;;;23.68;46.10;100549.16;88180;1274;98359;-32
2022/06/14 05:05:55;;;;;;;2.60;1.60;;;;;;;23.68;46.00;100550.20;88173;1274;89920;-30
2022/06/14 05:08:09;;;;;;;2.20;1.60;;;;;;;23.68;45.88;100548.01;88176;1274;93025;-32
2022/06/14 05:10:24;;;;;;;2.40;1.30;;;;;;;23.68;45.90;100549.32;88162;1274;78031;-31
2022/06/14 05:12:38;;;;;;;3.70;1.80;;;;;;;23.69;45.95;100553.25;88166;1275;82852;-30
2022/06/14 05:14:54;;;;;;;2.00;1.50;;;;;;;23.69;45.89;100558.65;88151;1274;99595;-30
2022/06/14 05:17:09;;;;;;;2.80;1.50;;;;;;;23.69;45.85;100556.77;88190;1274;91134;-31
2022/06/14 05:19:25;;;;;;;3.30;1.70;;;;;;;23.69;45.89;100549.61;88147;1274;93568;-31
2022/06/14 05:21:40;;;;;;;2.40;1.60;;;;;;;23.68;45.97;100552.64;88153;1274;78663;-32
2022/06/14 05:23:52;;;;;;;3.10;1.80;;;;;;;23.68;45.81;100551.15;88176;1274;80021;-31
2022/06/14 05:26:13;;;;;;;1.80;1.50;;;;;;;23.68;45.81;100550.75;88179;1274;98647;-32
2022/06/14 05:28:33;;;;;;;2.20;1.50;;;;;;;23.68;45.87;100551.20;88181;1274;90514;-31
2022/06/14 05:30:56;;;;;;;2.60;1.60;;;;;;;23.68;45.81;100549.89;88164;1272;95117;-31
2022/06/14 05:33:20;;;;;;;2.60;1.80;;;;;;;23.68;45.93;100549.88;88155;1274;78865;-31
2022/06/14 05:35:37;;;;;;;2.80;1.60;;;;;;;23.67;45.68;100546.19;88176;1274;81041;-32
2022/06/14 05:37:53;;;;;;;2.90;1.40;;;;;;;23.68;45.76;100543.64;88156;1274;98930;-33
2022/06/14 05:40:09;;;;;;;2.80;1.40;;;;;;;23.69;45.66;100543.20;88170;1274;90957;-32
2022/06/14 05:42:22;;;;;;;2.80;1.50;;;;;;;23.68;45.68;100549.15;88178;1274;93288;-31
2022/06/14 05:44:36;;;;;;;3.30;1.80;;;;;;;23.68;45.51;100546.63;88160;1274;79204;-32
2022/06/14 05:46:48;;;;;;;3.60;1.90;;;;;;;23.69;45.62;100546.89;88178;1274;80964;-33
2022/06/14 05:49:03;;;;;;;2.80;1.50;;;;;;;23.67;45.57;100546.17;88186;1274;97683;-31
2022/06/14 05:51:13;;;;;;;2.30;1.40;;;;;;;23.68;45.50;100555.08;88180;1274;91162;-32
2022/06/14 05:53:30;;;;;;;2.40;1.30;;;;;;;23.68;45.51;100552.86;88149;1274;95312;-33
2022/06/14 05:55:44;;;;;;;2.30;1.60;;;;;;;23.68;45.46;100552.64;88140;1274;78820;-31
2022/06/14 05:57:57;;;;;;;2.20;1.40;;;;;;;23.67;45.44;100552.48;88168;1274;81929;-32
2022/06/14 06:00:13;;;;;;;2.10;1.40;;;;;;;23.67;45.52;100553.96;88159;1274;97717;-32
2022/06/14 06:02:29;;;;;;;2.10;1.40;;;;;;;23.66;45.29;100557.43;88187;1274;90498;-32
2022/06/14 06:04:43;;;;;;;2.00;1.30;;;;;;;23.66;45.39;100555.61;88183;1274;92615;-32
2022/06/14 06:06:58;;;;;;;1.60;1.10;;;;;;;23.66;45.37;100558.98;88154;1274;79643;-31
2022/06/14 06:09:15;;;;;;;1.70;1.20;;;;;;;23.66;45.42;100561.95;88167;1274;81229;-31
2022/06/14 06:11:29;;;;;;;1.90;1.40;;;;;;;23.65;45.26;100559.08;88150;1274;98071;-32
2022/06/14 06:13:48;;;;;;;1.90;1.20;;;;;;;23.65;45.28;100564.16;88157;1274;90894;-31
2022/06/14 06:16:04;;;;;;;3.20;1.50;;;;;;;23.65;45.07;100558.08;88186;1274;94626;-31
2022/06/14 06:18:25;;;;;;;1.50;1.00;;;;;;;23.65;45.21;100567.09;88166;1274;79026;-32
2022/06/14 06:20:43;;;;;;;1.70;1.10;;;;;;;23.65;45.12;100563.21;88188;1274;80558;-32
2022/06/14 06:22:59;;;;;;;1.90;1.40;;;;;;;23.64;45.12;100567.36;88179;1274;98206;-32
2022/06/14 06:25:12;;;;;;;3.30;1.30;;;;;;;23.65;45.05;100567.02;88173;1274;89893;-31
2022/06/14 06:27:24;;;;;;;2.40;1.10;;;;;;;23.65;45.27;100568.30;88169;1274;94370;-31
2022/06/14 06:29:39;;;;;;;2.10;1.30;;;;;;;23.64;45.11;100568.25;88141;1274;83080;-31
2022/06/14 06:31:49;;;;;;;2.20;1.20;;;;;;;23.64;45.02;100568.70;88052;1276;82470;-32
2022/06/14 06:34:01;;;;;;;2.30;1.20;;;;;;;23.64;45.08;100568.19;88159;1274;98583;-32
2022/06/14 06:36:29;;;;;;;2.10;1.00;;;;;;;23.64;45.03;100566.59;88138;1276;89917;-30
2022/06/14 06:38:51;;;;;;;3.40;1.30;;;;;;;23.65;45.13;100561.35;88155;1274;93948;-32
2022/06/14 06:43:34;;;;;;;2.70;1.20;;;;;;;23.66;45.12;100562.51;88177;1274;82319;-32
2022/06/14 06:45:47;;;;;;;2.40;1.30;;;;;;;23.66;45.32;100560.85;88176;1274;97457;-32
2022/06/14 06:48:01;;;;;;;2.20;1.30;;;;;;;23.66;45.34;100560.96;88197;1274;92791;-32
2022/06/14 06:50:22;;;;;;;2.60;1.20;;;;;;;23.66;45.34;100567.70;88114;1276;94163;-31
2022/06/14 06:52:48;;;;;;;3.10;1.30;;;;;;;23.67;45.38;100567.48;88163;1274;78267;-31
2022/06/14 06:55:02;;;;;;;1.80;1.20;;;;;;;23.67;45.31;100573.44;88162;1274;81730;-31
2022/06/14 06:57:16;;;;;;;4.20;1.30;;;;;;;23.67;45.37;100576.42;88142;1274;98161;-30
2022/06/14 06:59:31;;;;;;;3.40;1.30;;;;;;;23.67;45.36;100576.38;88184;1274;90965;-31
2022/06/14 07:01:42;;;;;;;3.60;1.30;;;;;;;23.67;45.25;100577.31;88170;1274;95727;-33
2022/06/14 07:03:59;;;;;;;2.30;1.30;;;;;;;23.68;45.33;100576.92;88169;1274;79451;-31
2022/06/14 07:06:14;;;;;;;3.40;1.20;;;;;;;23.68;45.41;100573.95;88155;1274;81213;-31
2022/06/14 07:08:39;;;;;;;2.60;1.40;;;;;;;23.68;45.29;100573.50;88156;1274;98261;-32
2022/06/14 07:10:53;;;;;;;3.10;1.40;;;;;;;23.68;45.37;100576.58;88158;1274;90398;-31
2022/06/14 07:13:11;;;;;;;3.50;1.30;;;;;;;23.69;45.48;100580.11;88102;1274;94446;-33
2022/06/14 07:15:25;;;;;;;2.40;1.30;;;;;;;23.69;45.25;100576.15;88087;1274;80193;-33
2022/06/14 07:17:40;;;;;;;2.70;1.40;;;;;;;23.69;45.49;100575.27;88057;1274;81104;-33
2022/06/14 07:19:56;;;;;;;4.40;1.50;;;;;;;23.76;45.68;100569.33;88115;1274;98069;-32
2022/06/14 07:22:15;;;;;;;2.20;1.20;;;;;;;23.83;45.74;100569.06;88070;1274;90026;-33
2022/06/14 07:24:40;;;;;;;3.00;1.10;;;;;;;23.92;45.66;100574.48;88107;1274;95693;-32
2022/06/14 07:26:53;;;;;;;3.30;1.30;;;;;;;23.99;45.54;100570.98;88139;1274;79710;-35
2022/06/14 07:29:11;;;;;;;3.10;1.20;;;;;;;24.06;45.50;100575.45;88124;1274;81515;-35
2022/06/14 07:31:29;;;;;;;4.90;1.40;;;;;;;24.12;45.48;100571.64;88142;1274;99452;-34
2022/06/14 07:33:39;;;;;;;2.50;1.20;;;;;;;24.20;45.41;100575.29;88151;1274;92222;-33
2022/06/14 07:35:56;;;;;;;5.00;1.30;;;;;;;24.26;45.11;100572.48;88145;1274;94426;-31
2022/06/14 07:38:19;;;;;;;2.60;1.10;;;;;;;24.30;44.93;100574.48;88124;1276;79560;-32
2022/06/14 07:40:34;;;;;;;3.00;1.10;;;;;;;24.34;44.70;100570.38;88144;1276;80715;-34
2022/06/14 07:42:52;;;;;;;3.50;1.20;;;;;;;24.38;44.57;100575.85;88129;1276;96920;-30
2022/06/14 07:45:07;;;;;;;1.80;1.20;;;;;;;24.42;44.44;100571.23;88131;1276;90480;-32
2022/06/14 07:47:26;;;;;;;4.40;1.30;;;;;;;24.45;44.26;100565.23;88042;1276;93525;-34
2022/06/14 07:49:42;;;;;;;3.20;1.20;;;;;;;24.48;44.32;100566.91;88141;1276;78669;-30
2022/06/14 07:51:55;;;;;;;1.50;1.00;;;;;;;24.51;44.09;100565.73;88151;1276;81288;-30
2022/06/14 07:54:10;;;;;;;2.90;1.20;;;;;;;24.54;44.07;100569.33;88161;1274;98525;-31
2022/06/14 07:56:27;;;;;;;1.60;0.80;;;;;;;24.56;43.91;100569.55;88167;1274;91982;-32
2022/06/14 07:58:46;;;;;;;3.10;1.20;;;;;;;24.60;43.84;100571.20;88163;1274;94531;-32
2022/06/14 08:01:11;;;;;;;3.10;1.30;;;;;;;24.63;43.71;100572.43;88156;1274;80382;-33
2022/06/14 08:03:28;;;;;;;2.80;1.00;;;;;;;24.67;43.65;100570.88;88151;1274;81439;-32
2022/06/14 08:05:42;;;;;;;2.40;1.00;;;;;;;24.70;43.41;100565.13;88151;1274;98692;-31
2022/06/14 08:07:55;;;;;;;1.80;1.20;;;;;;;24.72;43.15;100563.69;88157;1274;91490;-30
2022/06/14 08:10:10;;;;;;;2.60;1.10;;;;;;;24.73;43.05;100566.21;88146;1274;93279;-31
2022/06/14 08:12:25;;;;;;;2.20;0.80;;;;;;;24.74;42.89;100563.63;88151;1274;80000;-35
2022/06/14 08:14:43;;;;;;;3.00;1.10;;;;;;;24.75;42.78;100569.87;88166;1274;81163;-33
2022/06/14 08:16:53;;;;;;;1.80;1.00;;;;;;;24.76;42.61;100571.85;88170;1274;96507;-33
2022/06/14 08:19:09;;;;;;;1.90;0.90;;;;;;;24.70;42.52;100572.52;88159;1274;92092;-34
2022/06/14 08:21:30;;;;;;;3.90;0.90;;;;;;;24.64;42.36;100566.95;88155;1274;92388;-33
2022/06/14 08:23:47;;;;;;;3.30;1.00;;;;;;;24.58;42.43;100565.64;88147;1274;80355;-33
2022/06/14 08:26:01;;;;;;;7.40;0.90;;;;;;;24.54;42.38;100566.90;88162;1274;81380;-38
2022/06/14 08:28:21;;;;;;;2.70;0.80;;;;;;;24.88;42.56;100561.89;88158;1274;97928;-37
2022/06/14 08:30:37;;;;;;;4.60;0.80;;;;;;;25.67;42.46;100564.46;88158;1274;91189;-38
2022/06/14 08:32:54;;;;;;;1.90;0.70;;;;;;;26.39;41.83;100560.81;88178;1274;94472;-38
2022/06/14 08:35:12;;;;;;;4.60;0.80;;;;;;;27.00;41.15;100562.02;88127;1275;78294;-37
2022/06/14 08:37:26;;;;;;;3.90;0.80;;;;;;;27.52;40.32;100563.70;88140;1275;81434;-36
2022/06/14 08:39:38;;;;;;;3.40;1.10;;;;;;;27.94;39.89;100560.02;88144;1275;100911;-38
2022/06/14 08:42:01;;;;;;;1.80;0.70;;;;;;;28.28;39.39;100556.45;88118;1276;90550;-36
2022/06/14 08:44:14;;;;;;;0.90;0.60;;;;;;;28.59;38.67;100559.11;88136;1274;93840;-37
2022/06/14 08:46:31;;;;;;;1.30;0.60;;;;;;;28.81;38.05;100560.46;88151;1274;80416;-36
2022/06/14 08:48:44;;;;;;;2.70;0.90;;;;;;;28.93;37.60;100558.79;88163;1274;82042;-36
2022/06/14 08:51:15;;;;;;;4.40;0.90;;;;;;;29.12;37.22;100562.07;87788;1274;525492;-37
2022/06/14 08:54:02;;;;;;;1.00;0.60;;;;;;;29.28;36.83;100560.86;88098;1276;91636;-36
2022/06/14 08:56:28;;;;;;;2.60;1.00;;;;;;;29.42;36.59;100557.51;88143;1275;93244;-37
2022/06/14 08:59:24;;;;;;;2.20;1.30;;;;;;;29.52;36.28;100560.70;88148;1274;78811;-36
2022/06/14 09:01:58;;;;;;;0.90;0.70;;;;;;;29.59;35.97;100559.48;88157;1274;83757;-35
2022/06/14 09:04:19;;;;;;;;;;;;;;;29.68;35.58;100559.48;88175;1274;98196;-36
2022/06/14 09:06:57;;;;;;;1.30;0.80;;;;;;;29.73;35.13;100564.29;88150;1274;92867;-36
2022/06/14 09:10:06;;;;;;;1.90;0.90;;;;;;;29.85;34.83;100569.90;88148;1274;94615;-38
2022/06/14 09:13:21;;;;;;;1.70;0.60;;;;;;;30.18;34.69;100564.99;88124;1274;78898;-34
2022/06/14 09:15:58;;;;;;;;;;;;;;;30.36;34.31;100560.10;88153;1274;80925;-33
2022/06/14 09:18:38;;;;;;;1.20;0.70;;;;;;;30.47;34.15;100555.10;88144;1275;98128;-33
2022/06/14 09:21:10;;;;;;;1.80;0.90;;;;;;;30.59;33.88;100555.02;88152;1274;91610;-33
2022/06/14 09:23:39;;;;;;;0.90;0.70;;;;;;;30.66;33.74;100560.64;88176;1274;93247;-33
2022/06/14 09:26:17;;;;;;;2.90;0.80;;;;;;;30.68;33.60;100559.96;88132;1274;79771;-35
2022/06/14 09:28:54;;;;;;;2.00;0.80;;;;;;;30.75;33.42;100559.35;88147;1276;82583;-33
2022/06/14 09:31:24;;;;;;;3.00;0.80;;;;;;;30.80;33.10;100560.92;88129;1276;96280;-34
2022/06/14 09:34:12;;;;;;;1.10;0.70;;;;;;;30.84;33.02;100567.29;88129;1276;91530;-34
2022/06/14 09:37:00;;;;;;;1.00;0.60;;;;;;;30.84;32.78;100572.11;88127;1276;94337;-33
2022/06/14 09:40:07;;;;;;;1.40;0.80;;;;;;;30.84;32.48;100576.73;88132;1276;80777;-36
2022/06/14 09:42:50;;;;;;;1.60;0.60;;;;;;;30.81;32.45;100577.81;87973;1276;81387;-34
2022/06/14 09:45:48;;;;;;;0.70;0.50;;;;;;;30.80;32.52;100582.62;88126;1276;98059;-33
2022/06/14 09:48:42;;;;;;;1.20;0.60;;;;;;;30.85;32.48;100581.56;87926;1278;92345;-35
2022/06/14 09:51:44;;;;;;;1.30;0.60;;;;;;;30.88;32.38;100584.77;88122;1275;94612;-36
2022/06/14 09:54:39;;;;;;;2.60;0.70;;;;;;;30.86;32.27;100585.23;88143;1274;81391;-37
2022/06/14 09:57:11;;;;;;;1.60;0.70;;;;;;;30.89;32.31;100587.24;88165;1274;81099;-36
2022/06/14 10:00:19;;;;;;;4.30;0.70;;;;;;;30.77;32.33;100587.30;88189;1274;97770;-37
2022/06/14 10:02:46;;;;;;;0.70;0.50;;;;;;;30.67;32.11;100582.61;87926;1279;91327;-36
2022/06/14 10:05:19;;;;;;;2.00;0.60;;;;;;;30.61;32.18;100576.90;88071;1276;94071;-38
2022/06/14 10:08:14;;;;;;;2.30;0.90;;;;;;;30.56;32.20;100569.94;88097;1274;79568;-37
2022/06/14 10:10:43;;;;;;;1.10;0.70;;;;;;;30.49;32.02;100563.55;88101;1274;81958;-36
2022/06/14 10:13:52;;;;;;;2.00;0.60;;;;;;;30.34;31.90;100560.60;88160;1275;98044;-36
2022/06/14 10:16:14;;;;;;;1.40;0.70;;;;;;;30.14;31.84;100559.19;88052;1274;91633;-34
2022/06/14 10:18:39;;;;;;;2.30;0.90;;;;;;;29.95;31.88;100561.64;88157;1274;94771;-35
2022/06/14 10:20:59;;;;;;;1.50;0.70;;;;;;;29.74;31.94;100560.98;88202;1273;79292;-36
2022/06/14 10:23:24;;;;;;;1.30;0.60;;;;;;;29.52;32.11;100562.63;88191;1273;82195;-37
2022/06/14 10:28:11;;;;;;;1.30;0.60;;;;;;;29.29;32.39;100565.23;88172;1274;97187;-35
2022/06/14 10:28:20;;;;;;;1.60;0.70;;;;;;;29.07;32.31;100567.65;88183;1273;90366;-36
2022/06/14 10:30:46;;;;;;;1.00;0.70;;;;;;;28.89;32.58;100570.09;88070;1276;95958;-35
2022/06/14 10:33:26;;;;;;;1.30;0.70;;;;;;;28.71;32.83;100577.11;88196;1273;81085;-35
2022/06/14 10:35:46;;;;;;;1.30;0.80;;;;;;;28.48;33.07;100579.08;88170;1273;81982;-34
2022/06/14 10:38:21;;;;;;;1.70;0.80;;;;;;;28.32;33.07;100586.80;88198;1273;97814;-37
2022/06/14 10:40:54;;;;;;;2.10;0.90;;;;;;;28.12;33.19;100582.38;88177;1273;92052;-36
2022/06/14 10:43:11;;;;;;;1.40;0.60;;;;;;;27.96;33.46;100589.54;88163;1273;92073;-36
2022/06/14 10:45:24;;;;;;;1.30;0.60;;;;;;;27.80;33.57;100591.64;88163;1273;79790;-35
2022/06/14 10:47:51;;;;;;;3.00;0.70;;;;;;;27.65;33.40;100583.88;88176;1273;81432;-35
2022/06/14 10:50:28;;;;;;;2.60;0.90;;;;;;;27.49;33.67;100584.34;88168;1273;98595;-34
2022/06/14 10:52:56;;;;;;;1.90;0.90;;;;;;;27.34;33.95;100581.43;88199;1273;91122;-34
2022/06/14 10:55:29;;;;;;;1.60;0.80;;;;;;;27.21;34.20;100577.71;88154;1273;94238;-36
2022/06/14 10:57:54;;;;;;;1.50;0.90;;;;;;;27.06;34.40;100578.27;88116;1276;80958;-35
2022/06/14 11:00:21;;;;;;;3.30;1.10;;;;;;;26.93;34.64;100580.90;88200;1273;82189;-36
2022/06/14 11:02:56;;;;;;;2.20;1.40;;;;;;;26.81;34.84;100581.35;88194;1273;98118;-37
2022/06/14 11:05:18;;;;;;;2.30;1.10;;;;;;;26.68;34.92;100583.11;88002;1274;90598;-36